createdAt,value
2018-08-31T00:00:37.825Z,102257.55
2018-08-31T00:01:38.019Z,102256.72
2018-08-31T00:02:39.109Z,102255.83
2018-08-31T00:03:38.307Z,102255.83
2018-08-31T00:04:38.568Z,102255.66
2018-08-31T00:05:38.728Z,102255.20
2018-08-31T00:06:38.911Z,102254.94
2018-08-31T00:07:39.135Z,102254.91
2018-08-31T00:07:47.487Z,102255.35
2018-08-31T00:08:48.629Z,102255.12
2018-08-31T00:09:49.088Z,102254.62
2018-08-31T00:10:49.232Z,102254.45
2018-08-31T00:11:49.497Z,102254.16
2018-08-31T00:12:49.707Z,102254.16
2018-08-31T00:13:49.977Z,102253.83
2018-08-31T00:14:50.433Z,102253.91
2018-08-31T00:15:50.612Z,102253.48
2018-08-31T00:16:50.809Z,102253.41
2018-08-31T00:17:51.195Z,102253.14
2018-08-31T00:18:51.583Z,102252.80
2018-08-31T00:19:52.601Z,102252.33
2018-08-31T00:20:52.828Z,102252.24
2018-08-31T00:21:53.175Z,102250.97
2018-08-31T00:22:53.427Z,102250.97
2018-08-31T00:23:53.623Z,102249.98
2018-08-31T00:24:54.095Z,102249.22
2018-08-31T00:25:54.373Z,102248.15
2018-08-31T00:26:54.585Z,102247.64
2018-08-31T00:27:54.789Z,102246.95
2018-08-31T00:28:55.455Z,102246.48
2018-08-31T00:29:55.763Z,102245.30
2018-08-31T00:30:57.158Z,102245.04
2018-08-31T00:31:55.390Z,102244.30
2018-08-31T00:32:56.591Z,102243.63
2018-08-31T00:33:56.802Z,102242.73
2018-08-31T00:34:57.029Z,102242.25
2018-08-31T00:35:57.367Z,102242.33
2018-08-31T00:36:57.688Z,102242.41
2018-08-31T00:37:57.888Z,102242.16
2018-08-31T00:38:58.050Z,102242.45
2018-08-31T00:39:58.533Z,102242.62
2018-08-31T00:40:58.805Z,102242.56
2018-08-31T00:41:59.046Z,102242.51
2018-08-31T00:42:59.333Z,102242.67
2018-08-31T00:43:59.856Z,102242.80
2018-08-31T00:45:00.121Z,102242.40
2018-08-31T00:46:00.434Z,102242.57
2018-08-31T00:47:00.954Z,102242.52
2018-08-31T00:48:01.433Z,102242.03
2018-08-31T00:49:01.709Z,102241.53
2018-08-31T00:50:01.931Z,102241.22
2018-08-31T00:51:02.212Z,102241.13
2018-08-31T00:52:02.669Z,102240.14
2018-08-31T00:53:02.895Z,102239.67
2018-08-31T00:54:03.074Z,102239.19
2018-08-31T00:54:12.967Z,102228.95
2018-08-31T00:55:14.196Z,102229.06
2018-08-31T00:56:15.497Z,102229.29
2018-08-31T00:57:14.711Z,102228.52
2018-08-31T00:58:14.969Z,102228.78
2018-08-31T00:59:15.475Z,102228.61
2018-08-31T01:00:15.834Z,102228.53
2018-08-31T01:01:16.039Z,102228.50
2018-08-31T01:02:16.296Z,102228.58
2018-08-31T01:03:16.463Z,102228.50
2018-08-31T01:04:16.848Z,102227.81
2018-08-31T01:05:17.312Z,102227.36
2018-08-31T01:06:17.800Z,102227.28
2018-08-31T01:07:18.079Z,102226.94
2018-08-31T01:08:18.242Z,102226.60
2018-08-31T01:09:18.909Z,102226.77
2018-08-31T01:10:19.356Z,102226.52
2018-08-31T01:11:18.771Z,102225.84
2018-08-31T01:12:19.984Z,102225.50
2018-08-31T01:13:20.325Z,102225.16
2018-08-31T01:14:20.551Z,102225.33
2018-08-31T01:15:20.721Z,102224.94
2018-08-31T01:16:20.974Z,102224.62
2018-08-31T01:17:22.426Z,102223.98
2018-08-31T01:18:21.659Z,102223.67
2018-08-31T01:19:21.860Z,102223.53
2018-08-31T01:20:22.081Z,102222.80
2018-08-31T01:21:22.320Z,102221.98
2018-08-31T01:22:22.515Z,102221.41
2018-08-31T01:23:22.775Z,102221.33
2018-08-31T01:24:23.051Z,102220.94
2018-08-31T01:25:23.342Z,102220.59
2018-08-31T01:26:23.577Z,102219.83
2018-08-31T01:27:23.899Z,102219.23
2018-08-31T01:28:24.204Z,102218.30
2018-08-31T01:29:24.399Z,102217.80
2018-08-31T01:30:25.047Z,102216.30
2018-08-31T01:31:25.495Z,102215.80
2018-08-31T01:32:25.735Z,102214.94
2018-08-31T01:33:26.006Z,102214.80
2018-08-31T01:34:26.169Z,102214.47
2018-08-31T01:35:26.418Z,102213.87
2018-08-31T01:36:26.606Z,102213.87
2018-08-31T01:37:26.812Z,102213.62
2018-08-31T01:37:35.239Z,102218.44
2018-08-31T01:38:36.417Z,102218.18
2018-08-31T01:39:36.631Z,102217.67
2018-08-31T01:40:36.802Z,102217.79
2018-08-31T01:41:37.149Z,102218.04
2018-08-31T01:42:37.710Z,102217.90
2018-08-31T01:43:38.157Z,102217.77
2018-08-31T01:44:38.588Z,102217.70
2018-08-31T01:45:38.760Z,102217.80
2018-08-31T01:46:38.965Z,102217.73
2018-08-31T01:47:38.135Z,102217.85
2018-08-31T01:48:39.349Z,102217.71
2018-08-31T01:49:39.617Z,102217.74
2018-08-31T01:50:39.897Z,102218.11
2018-08-31T01:51:40.170Z,102218.14
2018-08-31T01:52:40.374Z,102218.00
2018-08-31T01:53:39.629Z,102217.86
2018-08-31T01:54:40.991Z,102218.09
2018-08-31T01:55:41.272Z,102217.95
2018-08-31T01:56:41.451Z,102217.70
2018-08-31T01:57:41.715Z,102217.64
2018-08-31T01:58:41.955Z,102217.89
2018-08-31T01:59:42.221Z,102217.75
2018-08-31T02:00:43.714Z,102217.67
2018-08-31T02:01:42.954Z,102217.36
2018-08-31T02:02:43.149Z,102216.85
2018-08-31T02:03:43.365Z,102216.72
2018-08-31T02:04:43.576Z,102216.37
2018-08-31T02:05:43.806Z,102216.15
2018-08-31T02:06:44.163Z,102215.33
2018-08-31T02:07:44.457Z,102215.53
2018-08-31T02:08:44.729Z,102214.71
2018-08-31T02:09:44.979Z,102214.06
2018-08-31T02:10:45.169Z,102213.76
2018-08-31T02:11:45.671Z,102213.33
2018-08-31T02:12:45.939Z,102212.66
2018-08-31T02:13:46.339Z,102211.97
2018-08-31T02:14:46.661Z,102211.46
2018-08-31T02:15:46.830Z,102211.07
2018-08-31T02:16:47.137Z,102210.56
2018-08-31T02:17:47.363Z,102210.39
2018-08-31T02:18:47.539Z,102210.22
2018-08-31T02:19:47.897Z,102209.77
2018-08-31T02:20:48.417Z,102209.60
2018-08-31T02:21:48.633Z,102209.69
2018-08-31T02:21:57.162Z,102212.00
2018-08-31T02:22:58.403Z,102211.61
2018-08-31T02:23:58.700Z,102211.61
2018-08-31T02:24:58.908Z,102212.12
2018-08-31T02:25:59.107Z,102211.69
2018-08-31T02:26:59.398Z,102211.95
2018-08-31T02:27:59.680Z,102212.03
2018-08-31T02:28:59.832Z,102212.03
2018-08-31T02:30:00.155Z,102212.80
2018-08-31T02:31:00.384Z,102212.96
2018-08-31T02:32:00.676Z,102213.22
2018-08-31T02:33:00.052Z,102213.47
2018-08-31T02:34:01.329Z,102214.31
2018-08-31T02:35:01.560Z,102214.44
2018-08-31T02:36:02.045Z,102214.94
2018-08-31T02:37:02.319Z,102215.22
2018-08-31T02:38:02.868Z,102215.50
2018-08-31T02:39:02.087Z,102215.83
2018-08-31T02:40:03.314Z,102216.19
2018-08-31T02:41:03.526Z,102216.78
2018-08-31T02:42:03.669Z,102217.23
2018-08-31T02:43:03.811Z,102217.77
2018-08-31T02:44:04.027Z,102217.86
2018-08-31T02:45:04.308Z,102217.80
2018-08-31T02:46:04.719Z,102218.77
2018-08-31T02:47:04.927Z,102219.27
2018-08-31T02:48:05.285Z,102219.47
2018-08-31T02:49:05.769Z,102219.98
2018-08-31T02:50:05.989Z,102219.92
2018-08-31T02:51:06.220Z,102220.20
2018-08-31T02:52:06.457Z,102220.16
2018-08-31T02:53:06.910Z,102220.41
2018-08-31T02:54:07.314Z,102220.18
2018-08-31T02:55:07.493Z,102219.87
2018-08-31T02:56:07.753Z,102219.17
2018-08-31T02:57:08.003Z,102218.94
2018-08-31T02:58:08.157Z,102218.97
2018-08-31T02:59:08.368Z,102218.15
2018-08-31T03:00:08.536Z,102218.44
2018-08-31T03:01:08.766Z,102218.04
2018-08-31T03:02:09.946Z,102218.30
2018-08-31T03:03:09.150Z,102218.15
2018-08-31T03:04:09.360Z,102218.58
2018-08-31T03:05:09.538Z,102218.83
2018-08-31T03:06:09.724Z,102218.91
2018-08-31T03:06:18.187Z,102219.28
2018-08-31T03:07:19.442Z,102219.20
2018-08-31T03:08:19.833Z,102219.02
2018-08-31T03:09:20.074Z,102219.02
2018-08-31T03:10:20.222Z,102219.11
2018-08-31T03:11:20.702Z,102218.94
2018-08-31T03:12:21.180Z,102219.36
2018-08-31T03:13:21.387Z,102219.63
2018-08-31T03:14:21.560Z,102219.53
2018-08-31T03:15:21.753Z,102219.37
2018-08-31T03:16:22.103Z,102219.59
2018-08-31T03:17:22.274Z,102219.59
2018-08-31T03:18:22.536Z,102219.42
2018-08-31T03:19:22.844Z,102219.34
2018-08-31T03:20:23.468Z,102218.48
2018-08-31T03:21:23.885Z,102218.92
2018-08-31T03:22:23.054Z,102218.91
2018-08-31T03:23:24.493Z,102219.20
2018-08-31T03:24:24.386Z,102219.62
2018-08-31T03:25:24.443Z,102219.82
2018-08-31T03:26:25.637Z,102220.16
2018-08-31T03:27:25.794Z,102220.16
2018-08-31T03:28:26.022Z,102220.50
2018-08-31T03:29:26.274Z,102220.33
2018-08-31T03:30:26.424Z,102220.44
2018-08-31T03:31:26.916Z,102220.44
2018-08-31T03:32:26.102Z,102221.03
2018-08-31T03:33:26.541Z,102221.28
2018-08-31T03:34:27.977Z,102221.97
2018-08-31T03:35:28.284Z,102222.25
2018-08-31T03:36:28.553Z,102222.16
2018-08-31T03:37:28.755Z,102221.85
2018-08-31T03:38:28.979Z,102221.59
2018-08-31T03:39:29.192Z,102221.52
2018-08-31T03:40:29.375Z,102220.95
2018-08-31T03:41:29.735Z,102220.27
2018-08-31T03:42:29.927Z,102219.98
2018-08-31T03:43:30.088Z,102219.48
2018-08-31T03:44:30.516Z,102218.44
2018-08-31T03:45:30.699Z,102217.59
2018-08-31T03:46:31.328Z,102217.30
2018-08-31T03:47:31.819Z,102216.87
2018-08-31T03:48:30.968Z,102216.71
2018-08-31T03:49:32.189Z,102216.25
2018-08-31T03:50:32.533Z,102216.09
2018-08-31T03:51:32.751Z,102216.17
2018-08-31T03:52:33.170Z,102216.09
2018-08-31T03:53:33.387Z,102215.50
2018-08-31T03:53:41.755Z,102215.21
2018-08-31T03:54:42.883Z,102214.79
2018-08-31T03:55:43.122Z,102215.05
2018-08-31T03:56:43.371Z,102214.79
2018-08-31T03:57:43.571Z,102214.28
2018-08-31T03:58:43.756Z,102213.99
2018-08-31T03:59:43.944Z,102213.91
2018-08-31T04:00:44.149Z,102213.23
2018-08-31T04:01:44.544Z,102213.16
2018-08-31T04:02:44.804Z,102212.90
2018-08-31T04:03:44.978Z,102212.44
2018-08-31T04:04:45.111Z,102212.19
2018-08-31T04:05:45.449Z,102211.84
2018-08-31T04:06:45.774Z,102211.42
2018-08-31T04:07:46.225Z,102211.17
2018-08-31T04:08:46.484Z,102211.22
2018-08-31T04:09:46.840Z,102211.14
2018-08-31T04:10:47.295Z,102210.94
2018-08-31T04:11:47.662Z,102210.69
2018-08-31T04:12:47.872Z,102211.20
2018-08-31T04:13:48.105Z,102210.91
2018-08-31T04:14:48.370Z,102211.00
2018-08-31T04:15:47.474Z,102211.59
2018-08-31T04:16:49.218Z,102212.44
2018-08-31T04:17:49.873Z,102212.61
2018-08-31T04:18:49.060Z,102213.74
2018-08-31T04:19:50.422Z,102214.50
2018-08-31T04:20:51.349Z,102214.67
2018-08-31T04:21:52.821Z,102215.69
2018-08-31T04:22:52.079Z,102216.31
2018-08-31T04:23:52.473Z,102216.91
2018-08-31T04:24:52.694Z,102217.78
2018-08-31T04:25:52.934Z,102218.55
2018-08-31T04:26:53.121Z,102219.17
2018-08-31T04:27:53.346Z,102219.36
2018-08-31T04:28:53.550Z,102219.87
2018-08-31T04:29:53.944Z,102220.41
2018-08-31T04:30:54.146Z,102220.02
2018-08-31T04:31:54.372Z,102220.10
2018-08-31T04:32:54.803Z,102219.76
2018-08-31T04:33:55.125Z,102220.30
2018-08-31T04:34:54.401Z,102219.78
2018-08-31T04:35:55.796Z,102219.31
2018-08-31T04:36:56.131Z,102219.59
2018-08-31T04:37:56.487Z,102219.93
2018-08-31T04:38:56.641Z,102219.70
2018-08-31T04:39:56.855Z,102219.05
2018-08-31T04:40:05.260Z,102221.03
2018-08-31T04:41:06.516Z,102220.30
2018-08-31T04:42:06.802Z,102219.70
2018-08-31T04:43:07.120Z,102219.11
2018-08-31T04:44:07.331Z,102219.02
2018-08-31T04:45:07.566Z,102219.22
2018-08-31T04:46:07.983Z,102219.00
2018-08-31T04:47:08.324Z,102219.34
2018-08-31T04:48:08.529Z,102219.36
2018-08-31T04:49:08.749Z,102219.70
2018-08-31T04:50:08.980Z,102220.23
2018-08-31T04:51:09.357Z,102220.91
2018-08-31T04:52:09.585Z,102220.86
2018-08-31T04:53:09.874Z,102221.39
2018-08-31T04:54:10.631Z,102221.39
2018-08-31T04:55:11.037Z,102221.90
2018-08-31T04:56:11.235Z,102222.41
2018-08-31T04:57:11.458Z,102222.66
2018-08-31T04:58:11.947Z,102222.75
2018-08-31T04:59:12.490Z,102222.92
2018-08-31T05:00:13.111Z,102223.40
2018-08-31T05:01:13.659Z,102223.58
2018-08-31T05:02:13.974Z,102223.80
2018-08-31T05:03:14.231Z,102223.52
2018-08-31T05:04:14.467Z,102223.91
2018-08-31T05:05:14.812Z,102223.80
2018-08-31T05:06:15.173Z,102224.20
2018-08-31T05:07:15.386Z,102224.13
2018-08-31T05:08:15.673Z,102224.45
2018-08-31T05:09:16.130Z,102224.42
2018-08-31T05:10:16.750Z,102224.73
2018-08-31T05:11:16.963Z,102224.96
2018-08-31T05:12:17.379Z,102225.36
2018-08-31T05:13:17.614Z,102225.97
2018-08-31T05:14:17.784Z,102226.45
2018-08-31T05:15:17.987Z,102227.02
2018-08-31T05:16:18.318Z,102226.73
2018-08-31T05:17:18.788Z,102227.05
2018-08-31T05:18:19.107Z,102227.11
2018-08-31T05:19:19.378Z,102227.53
2018-08-31T05:20:19.545Z,102227.58
2018-08-31T05:21:19.865Z,102227.84
2018-08-31T05:22:20.387Z,102228.09
2018-08-31T05:23:20.810Z,102228.44
2018-08-31T05:24:20.584Z,102228.69
2018-08-31T05:24:30.571Z,102235.63
2018-08-31T05:25:28.749Z,102235.24
2018-08-31T05:26:30.064Z,102234.95
2018-08-31T05:27:30.310Z,102234.95
2018-08-31T05:28:30.684Z,102234.76
2018-08-31T05:29:29.875Z,102235.16
2018-08-31T05:30:31.194Z,102234.78
2018-08-31T05:31:31.950Z,102234.50
2018-08-31T05:32:32.218Z,102234.39
2018-08-31T05:33:32.484Z,102233.91
2018-08-31T05:34:33.212Z,102234.22
2018-08-31T05:35:33.503Z,102234.50
2018-08-31T05:36:33.717Z,102234.90
2018-08-31T05:37:33.931Z,102235.52
2018-08-31T05:38:34.303Z,102235.06
2018-08-31T05:39:34.991Z,102235.17
2018-08-31T05:40:35.257Z,102235.70
2018-08-31T05:41:35.551Z,102235.52
2018-08-31T05:42:35.826Z,102235.28
2018-08-31T05:43:36.099Z,102235.56
2018-08-31T05:44:36.372Z,102235.80
2018-08-31T05:45:36.699Z,102235.56
2018-08-31T05:46:37.437Z,102235.92
2018-08-31T05:47:37.693Z,102235.73
2018-08-31T05:48:38.114Z,102235.92
2018-08-31T05:49:38.379Z,102235.95
2018-08-31T05:50:38.608Z,102236.59
2018-08-31T05:51:38.923Z,102237.38
2018-08-31T05:52:39.672Z,102238.03
2018-08-31T05:53:40.626Z,102238.39
2018-08-31T05:54:39.795Z,102239.05
2018-08-31T05:55:41.187Z,102239.92
2018-08-31T05:56:41.513Z,102240.31
2018-08-31T05:57:41.740Z,102241.27
2018-08-31T05:58:42.203Z,102242.00
2018-08-31T05:59:42.476Z,102242.91
2018-08-31T06:00:42.805Z,102243.39
2018-08-31T06:01:43.133Z,102244.34
2018-08-31T06:02:43.319Z,102244.91
2018-08-31T06:03:43.614Z,102245.70
2018-08-31T06:04:44.232Z,102245.78
2018-08-31T06:05:44.444Z,102246.06
2018-08-31T06:06:44.951Z,102246.28
2018-08-31T06:07:45.282Z,102246.73
2018-08-31T06:07:54.222Z,102252.60
2018-08-31T06:08:56.789Z,102252.69
2018-08-31T06:09:56.021Z,102252.34
2018-08-31T06:10:56.191Z,102253.03
2018-08-31T06:11:56.632Z,102253.14
2018-08-31T06:12:55.754Z,102253.48
2018-08-31T06:13:57.145Z,102253.87
2018-08-31T06:14:57.386Z,102254.64
2018-08-31T06:15:57.623Z,102255.06
2018-08-31T06:16:57.978Z,102255.55
2018-08-31T06:17:58.255Z,102256.05
2018-08-31T06:18:58.637Z,102256.95
2018-08-31T06:19:58.911Z,102257.13
2018-08-31T06:20:59.313Z,102257.37
2018-08-31T06:21:58.765Z,102257.86
2018-08-31T06:23:00.028Z,102258.02
2018-08-31T06:24:00.439Z,102258.42
2018-08-31T06:25:00.843Z,102258.39
2018-08-31T06:26:01.302Z,102258.78
2018-08-31T06:27:01.590Z,102258.70
2018-08-31T06:28:00.777Z,102259.56
2018-08-31T06:29:02.014Z,102259.70
2018-08-31T06:30:02.338Z,102260.09
2018-08-31T06:31:02.639Z,102260.41
2018-08-31T06:32:03.252Z,102261.14
2018-08-31T06:33:03.548Z,102261.41
2018-08-31T06:34:03.865Z,102260.95
2018-08-31T06:35:04.200Z,102261.32
2018-08-31T06:36:04.465Z,102261.54
2018-08-31T06:37:04.796Z,102262.33
2018-08-31T06:38:05.390Z,102262.72
2018-08-31T06:39:05.729Z,102262.86
2018-08-31T06:40:06.232Z,102263.92
2018-08-31T06:41:06.503Z,102264.20
2018-08-31T06:42:06.671Z,102264.52
2018-08-31T06:43:06.984Z,102265.07
2018-08-31T06:44:07.860Z,102265.30
2018-08-31T06:45:08.280Z,102264.92
2018-08-31T06:46:08.572Z,102265.54
2018-08-31T06:47:08.948Z,102265.42
2018-08-31T06:48:09.329Z,102265.78
2018-08-31T06:49:09.629Z,102266.00
2018-08-31T06:50:09.828Z,102266.39
2018-08-31T06:51:10.107Z,102266.76
2018-08-31T06:52:10.429Z,102266.89
2018-08-31T06:53:11.071Z,102267.37
2018-08-31T06:54:11.760Z,102268.10
2018-08-31T06:55:12.185Z,102268.58
2018-08-31T06:55:21.651Z,102281.41
2018-08-31T06:56:20.862Z,102280.80
2018-08-31T06:57:22.132Z,102280.72
2018-08-31T06:58:22.729Z,102280.84
2018-08-31T06:59:22.988Z,102280.59
2018-08-31T07:00:23.430Z,102280.67
2018-08-31T07:01:23.905Z,102280.36
2018-08-31T07:02:24.427Z,102279.86
2018-08-31T07:03:24.732Z,102279.62
2018-08-31T07:04:25.209Z,102280.20
2018-08-31T07:05:25.445Z,102279.77
2018-08-31T07:06:25.852Z,102279.34
2018-08-31T07:07:26.420Z,102278.97
2018-08-31T07:08:26.790Z,102278.85
2018-08-31T07:09:27.248Z,102278.09
2018-08-31T07:10:27.651Z,102277.89
2018-08-31T07:11:27.904Z,102278.08
2018-08-31T07:12:28.420Z,102277.78
2018-08-31T07:13:27.544Z,102277.33
2018-08-31T07:14:28.729Z,102277.27
2018-08-31T07:15:28.975Z,102276.86
2018-08-31T07:16:29.548Z,102276.57
2018-08-31T07:17:29.881Z,102276.25
2018-08-31T07:18:30.109Z,102275.75
2018-08-31T07:19:30.482Z,102275.44
2018-08-31T07:20:29.836Z,102275.11
2018-08-31T07:21:31.100Z,102274.79
2018-08-31T07:22:31.582Z,102274.72
2018-08-31T07:23:31.780Z,102274.57
2018-08-31T07:24:32.046Z,102274.47
2018-08-31T07:25:32.274Z,102274.57
2018-08-31T07:26:32.849Z,102274.59
2018-08-31T07:27:33.032Z,102274.60
2018-08-31T07:28:33.295Z,102274.53
2018-08-31T07:29:33.523Z,102274.50
2018-08-31T07:30:33.825Z,102274.86
2018-08-31T07:31:34.174Z,102274.91
2018-08-31T07:32:34.574Z,102275.18
2018-08-31T07:33:34.835Z,102274.97
2018-08-31T07:34:35.084Z,102275.16
2018-08-31T07:35:35.405Z,102275.17
2018-08-31T07:36:35.932Z,102275.53
2018-08-31T07:37:36.144Z,102275.17
2018-08-31T07:38:36.434Z,102274.81
2018-08-31T07:39:36.692Z,102274.28
2018-08-31T07:40:36.891Z,102274.30
2018-08-31T07:41:37.175Z,102273.72
2018-08-31T07:42:37.509Z,102273.05
2018-08-31T07:42:46.080Z,102272.77
2018-08-31T07:43:47.332Z,102272.34
2018-08-31T07:44:47.496Z,102272.42
2018-08-31T07:45:47.750Z,102272.22
2018-08-31T07:46:48.206Z,102272.02
2018-08-31T07:47:48.780Z,102271.80
2018-08-31T07:48:48.329Z,102271.64
2018-08-31T07:49:49.768Z,102271.57
2018-08-31T07:50:50.037Z,102271.72
2018-08-31T07:51:50.308Z,102271.39
2018-08-31T07:52:50.464Z,102271.19
2018-08-31T07:53:50.830Z,102271.25
2018-08-31T07:54:50.114Z,102271.14
2018-08-31T07:55:51.829Z,102271.16
2018-08-31T07:56:52.182Z,102270.67
2018-08-31T07:57:52.412Z,102271.33
2018-08-31T07:58:52.684Z,102271.98
2018-08-31T07:59:53.321Z,102271.94
2018-08-31T08:00:53.982Z,102272.08
2018-08-31T08:01:54.818Z,102272.48
2018-08-31T08:02:55.088Z,102272.34
2018-08-31T08:03:55.440Z,102272.48
2018-08-31T08:04:55.901Z,102272.44
2018-08-31T08:05:56.274Z,102272.72
2018-08-31T08:06:56.610Z,102272.82
2018-08-31T08:07:56.954Z,102273.14
2018-08-31T08:08:57.202Z,102273.37
2018-08-31T08:09:57.861Z,102273.30
2018-08-31T08:10:58.107Z,102273.31
2018-08-31T08:11:58.465Z,102273.61
2018-08-31T08:12:58.656Z,102273.87
2018-08-31T08:13:59.097Z,102273.59
2018-08-31T08:14:59.402Z,102273.45
2018-08-31T08:15:59.602Z,102273.16
2018-08-31T08:17:00.035Z,102273.24
2018-08-31T08:18:00.434Z,102273.08
2018-08-31T08:19:00.647Z,102273.03
2018-08-31T08:20:01.016Z,102273.28
2018-08-31T08:21:01.263Z,102273.52
2018-08-31T08:22:01.815Z,102273.00
2018-08-31T08:23:02.119Z,102273.16
2018-08-31T08:24:02.361Z,102273.44
2018-08-31T08:25:01.848Z,102273.76
2018-08-31T08:26:03.231Z,102273.86
2018-08-31T08:27:03.588Z,102274.57
2018-08-31T08:28:03.848Z,102274.63
2018-08-31T08:29:04.185Z,102275.03
2018-08-31T08:29:12.527Z,102281.16
2018-08-31T08:30:13.896Z,102280.78
2018-08-31T08:31:13.871Z,102281.16
2018-08-31T08:32:14.152Z,102281.21
2018-08-31T08:33:14.736Z,102280.95
2018-08-31T08:34:15.121Z,102280.56
2018-08-31T08:35:15.934Z,102280.44
2018-08-31T08:36:16.378Z,102280.13
2018-08-31T08:37:16.704Z,102279.66
2018-08-31T08:38:16.938Z,102279.98
2018-08-31T08:39:17.168Z,102279.45
2018-08-31T08:40:17.429Z,102278.96
2018-08-31T08:41:17.830Z,102278.50
2018-08-31T08:42:18.149Z,102277.83
2018-08-31T08:43:17.808Z,102276.94
2018-08-31T08:44:18.029Z,102276.35
2018-08-31T08:45:19.408Z,102275.80
2018-08-31T08:46:19.709Z,102275.10
2018-08-31T08:47:20.120Z,102274.55
2018-08-31T08:48:20.389Z,102274.20
2018-08-31T08:49:19.941Z,102273.34
2018-08-31T08:50:21.167Z,102272.94
2018-08-31T08:51:21.720Z,102272.92
2018-08-31T08:52:22.193Z,102271.56
2018-08-31T08:53:22.415Z,102270.87
2018-08-31T08:54:22.699Z,102270.97
2018-08-31T08:55:23.380Z,102270.08
2018-08-31T08:56:23.825Z,102269.72
2018-08-31T08:57:24.550Z,102268.88
2018-08-31T08:58:24.996Z,102268.69
2018-08-31T08:59:24.113Z,102268.20
2018-08-31T09:00:25.345Z,102267.84
2018-08-31T09:01:25.787Z,102267.52
2018-08-31T09:02:26.138Z,102266.73
2018-08-31T09:03:26.381Z,102266.28
2018-08-31T09:04:26.679Z,102265.59
2018-08-31T09:05:26.951Z,102265.30
2018-08-31T09:06:26.241Z,102265.16
2018-08-31T09:07:27.442Z,102264.95
2018-08-31T09:08:27.640Z,102265.05
2018-08-31T09:09:28.065Z,102265.16
2018-08-31T09:10:28.501Z,102264.75
2018-08-31T09:11:28.931Z,102264.22
2018-08-31T09:12:30.587Z,102263.70
2018-08-31T09:13:30.264Z,102263.50
2018-08-31T09:14:30.732Z,102263.30
2018-08-31T09:15:31.005Z,102263.11
2018-08-31T09:16:31.292Z,102262.50
2018-08-31T09:17:31.556Z,102262.22
2018-08-31T09:17:39.603Z,102255.06
2018-08-31T09:18:40.688Z,102255.06
2018-08-31T09:19:41.027Z,102255.23
2018-08-31T09:20:41.206Z,102255.39
2018-08-31T09:21:41.466Z,102255.29
2018-08-31T09:22:41.669Z,102255.23
2018-08-31T09:23:42.318Z,102255.32
2018-08-31T09:24:41.838Z,102254.95
2018-08-31T09:25:41.959Z,102254.94
2018-08-31T09:26:42.149Z,102255.12
2018-08-31T09:27:43.508Z,102255.97
2018-08-31T09:28:42.990Z,102256.15
2018-08-31T09:29:44.497Z,102256.16
2018-08-31T09:30:44.690Z,102255.80
2018-08-31T09:31:44.908Z,102255.94
2018-08-31T09:32:45.996Z,102256.38
2018-08-31T09:33:45.140Z,102256.72
2018-08-31T09:34:47.576Z,102256.16
2018-08-31T09:35:46.661Z,102256.56
2018-08-31T09:36:46.962Z,102256.38
2018-08-31T09:37:47.335Z,102256.95
2018-08-31T09:38:47.622Z,102257.26
2018-08-31T09:39:48.028Z,102256.47
2018-08-31T09:40:48.297Z,102255.98
2018-08-31T09:41:48.624Z,102256.26
2018-08-31T09:42:47.752Z,102255.78
2018-08-31T09:43:48.963Z,102255.64
2018-08-31T09:44:49.203Z,102255.12
2018-08-31T09:45:49.979Z,102254.48
2018-08-31T09:46:50.745Z,102254.16
2018-08-31T09:47:51.223Z,102253.36
2018-08-31T09:48:52.505Z,102252.91
2018-08-31T09:49:50.767Z,102252.19
2018-08-31T09:50:52.732Z,102252.30
2018-08-31T09:51:53.017Z,102251.94
2018-08-31T09:52:53.269Z,102251.43
2018-08-31T09:53:53.758Z,102251.22
2018-08-31T09:54:54.380Z,102250.70
2018-08-31T09:55:54.557Z,102250.50
2018-08-31T09:56:54.826Z,102249.34
2018-08-31T09:57:55.083Z,102248.20
2018-08-31T09:58:55.595Z,102247.34
2018-08-31T09:59:55.781Z,102246.95
2018-08-31T10:00:56.100Z,102245.91
2018-08-31T10:01:57.515Z,102245.39
2018-08-31T10:02:57.031Z,102244.50
2018-08-31T10:03:57.431Z,102244.36
2018-08-31T10:04:57.683Z,102243.42
2018-08-31T10:05:58.256Z,102242.89
2018-08-31T10:06:58.753Z,102241.97
2018-08-31T10:07:06.846Z,102231.13
2018-08-31T10:08:08.408Z,102230.95
2018-08-31T10:09:08.781Z,102231.48
2018-08-31T10:10:08.298Z,102231.57
2018-08-31T10:11:09.693Z,102231.30
2018-08-31T10:12:10.064Z,102231.53
2018-08-31T10:13:10.961Z,102231.77
2018-08-31T10:14:11.202Z,102232.17
2018-08-31T10:15:11.587Z,102231.77
2018-08-31T10:16:10.742Z,102232.05
2018-08-31T10:17:12.058Z,102231.78
2018-08-31T10:18:12.130Z,102231.86
2018-08-31T10:19:13.061Z,102230.94
2018-08-31T10:20:13.201Z,102230.49
2018-08-31T10:21:13.436Z,102230.24
2018-08-31T10:22:13.744Z,102229.45
2018-08-31T10:23:14.171Z,102229.41
2018-08-31T10:24:14.531Z,102228.78
2018-08-31T10:25:14.875Z,102228.70
2018-08-31T10:26:14.354Z,102228.42
2018-08-31T10:27:14.672Z,102227.89
2018-08-31T10:28:16.280Z,102227.83
2018-08-31T10:29:16.236Z,102227.34
2018-08-31T10:30:16.793Z,102226.75
2018-08-31T10:31:15.909Z,102225.91
2018-08-31T10:32:17.240Z,102225.52
2018-08-31T10:33:17.632Z,102225.22
2018-08-31T10:34:18.110Z,102224.65
2018-08-31T10:35:18.596Z,102224.33
2018-08-31T10:36:18.928Z,102223.63
2018-08-31T10:37:19.367Z,102222.91
2018-08-31T10:38:19.553Z,102222.66
2018-08-31T10:39:19.701Z,102222.11
2018-08-31T10:40:20.401Z,102221.72
2018-08-31T10:41:19.574Z,102221.41
2018-08-31T10:42:20.780Z,102219.98
2018-08-31T10:43:21.002Z,102219.66
2018-08-31T10:44:21.338Z,102218.92
2018-08-31T10:45:21.552Z,102218.15
2018-08-31T10:46:22.248Z,102217.66
2018-08-31T10:47:21.591Z,102217.09
2018-08-31T10:48:22.824Z,102216.45
2018-08-31T10:49:23.077Z,102215.70
2018-08-31T10:50:23.331Z,102214.39
2018-08-31T10:51:23.876Z,102214.10
2018-08-31T10:52:24.207Z,102214.15
2018-08-31T10:53:24.576Z,102213.34
2018-08-31T10:54:25.133Z,102212.19
2018-08-31T10:55:25.679Z,102211.17
2018-08-31T10:56:26.215Z,102210.32
2018-08-31T10:56:34.696Z,102203.02
2018-08-31T10:57:35.890Z,102202.63
2018-08-31T10:58:36.706Z,102202.22
2018-08-31T10:59:36.996Z,102202.39
2018-08-31T11:00:37.787Z,102201.49
2018-08-31T11:01:38.398Z,102201.37
2018-08-31T11:02:39.007Z,102200.94
2018-08-31T11:03:39.345Z,102200.45
2018-08-31T11:04:38.608Z,102200.39
2018-08-31T11:05:39.859Z,102199.94
2018-08-31T11:06:40.658Z,102199.52
2018-08-31T11:07:40.841Z,102199.37
2018-08-31T11:08:41.224Z,102198.30
2018-08-31T11:09:41.484Z,102198.27
2018-08-31T11:10:41.908Z,102197.13
2018-08-31T11:11:42.341Z,102197.17
2018-08-31T11:12:42.939Z,102196.69
2018-08-31T11:13:42.327Z,102195.70
2018-08-31T11:14:43.604Z,102194.73
2018-08-31T11:15:44.591Z,102193.98